Weather at Dhangarhi Airport

Public forecast

Using degrees Celsius for public forecast. Weather courtesy of forecast.io.

Closest aviation weather report (METAR) to Dhangarhi Airport

Report is more than 6 hours old.

Closest report is Pantnagar Airport, 60.7 nm (112.4 km) WNW.

2024/05/26 11:30 (retrieved 11 hours ago)

VIPT 261130Z 12002KT 5000 HZ FEW020 38/21 Q0995

Closest aviation forecast (TAF) to Dhangarhi Airport

Forecast is more than 6 hours old.

Closest forecast is Pantnagar Airport, 60.7 nm (112.4 km) WNW.

2024/05/26 12:00 (retrieved 10 hours ago)

TAF VIPT 261100Z 2612/2718 14004KT 5000 HZ FEW020 BECMG 2618/2620 VRB02KT 4000 HZ BECMG 2700/2702 07008KT 3000 HZ NSC BECMG 2704/2706 14010KT 4000 HZ FEW030 BECMG 2708/2710 23008KT 5000 HZ FEW030 SCT100